createdAt,value
2018-11-26T00:00:36.269Z,21.97
2018-11-26T00:03:10.275Z,18.83
2018-11-26T00:05:40.194Z,16.73
2018-11-26T00:08:11.502Z,24.23
2018-11-26T00:10:51.777Z,22.20
2018-11-26T00:13:20.283Z,21.07
2018-11-26T00:15:48.775Z,23.27
2018-11-26T00:18:17.282Z,19.80
2018-11-26T00:20:45.751Z,20.93
2018-11-26T00:23:14.275Z,22.73
2018-11-26T00:25:42.802Z,26.07
2018-11-26T00:28:11.326Z,25.87
2018-11-26T00:30:40.146Z,24.60
2018-11-26T00:33:08.686Z,21.87
2018-11-26T00:35:37.183Z,21.90
2018-11-26T00:38:05.803Z,18.87
2018-11-26T00:40:34.298Z,25.83
2018-11-26T00:43:02.947Z,26.00
2018-11-26T00:45:31.494Z,23.57
2018-11-26T00:47:59.969Z,27.77
2018-11-26T00:50:28.578Z,22.17
2018-11-26T00:52:57.077Z,22.30
2018-11-26T00:55:25.574Z,26.70
2018-11-26T00:57:54.065Z,24.00
2018-11-26T01:00:22.576Z,26.73
2018-11-26T01:02:51.190Z,27.27
2018-11-26T01:05:31.022Z,26.27
2018-11-26T01:07:59.526Z,24.23
2018-11-26T01:10:28.054Z,22.57
2018-11-26T01:12:56.563Z,23.63
2018-11-26T01:15:25.287Z,26.30
2018-11-26T01:17:53.836Z,28.17
2018-11-26T01:20:22.591Z,23.07
2018-11-26T01:22:51.743Z,31.33
2018-11-26T01:25:20.300Z,31.40
2018-11-26T01:27:48.846Z,25.63
2018-11-26T01:30:17.414Z,22.77
2018-11-26T01:32:45.947Z,21.30
2018-11-26T01:35:14.519Z,22.07
2018-11-26T01:37:43.072Z,21.90
2018-11-26T01:40:22.980Z,20.97
2018-11-26T01:42:51.596Z,19.17
2018-11-26T01:45:20.129Z,24.60
2018-11-26T01:47:48.636Z,17.50
2018-11-26T01:50:17.184Z,19.50
2018-11-26T01:52:45.686Z,17.00
2018-11-26T01:55:14.256Z,18.17
2018-11-26T01:57:43.265Z,20.17
2018-11-26T02:00:17.018Z,18.00
2018-11-26T02:02:45.529Z,17.60
2018-11-26T02:05:14.362Z,16.67
2018-11-26T02:07:42.871Z,19.00
2018-11-26T02:10:13.601Z,14.93
2018-11-26T02:12:42.149Z,14.90
2018-11-26T02:15:27.660Z,14.27
2018-11-26T02:17:56.152Z,15.23
2018-11-26T02:20:24.698Z,14.80
2018-11-26T02:22:53.273Z,10.53
2018-11-26T02:25:21.824Z,14.13
2018-11-26T02:27:50.502Z,9.47
2018-11-26T02:30:19.036Z,10.80
2018-11-26T02:32:47.544Z,9.57
2018-11-26T02:35:16.079Z,9.60
2018-11-26T02:37:50.622Z,7.20
2018-11-26T02:40:25.350Z,8.80
2018-11-26T02:42:53.885Z,8.53
2018-11-26T02:45:22.435Z,8.00
2018-11-26T02:47:50.998Z,9.37
2018-11-26T02:50:19.549Z,9.63
2018-11-26T02:52:48.038Z,7.90
2018-11-26T02:55:16.575Z,7.57
2018-11-26T02:57:45.132Z,8.87
2018-11-26T03:00:14.138Z,9.43
2018-11-26T03:02:42.784Z,8.37
2018-11-26T03:05:13.448Z,10.63
2018-11-26T03:07:41.976Z,9.10
2018-11-26T03:10:11.153Z,8.50
2018-11-26T03:12:39.926Z,9.23
2018-11-26T03:15:10.179Z,8.70
2018-11-26T03:17:39.307Z,8.33
2018-11-26T03:20:09.234Z,8.03
2018-11-26T03:22:37.787Z,9.90
2018-11-26T03:25:08.890Z,12.30
2018-11-26T03:27:37.431Z,8.10
2018-11-26T03:30:21.435Z,7.20
2018-11-26T03:32:50.280Z,8.27
2018-11-26T03:35:18.829Z,10.40
2018-11-26T03:37:47.360Z,8.47
2018-11-26T03:40:15.895Z,9.23
2018-11-26T03:42:44.834Z,7.97
2018-11-26T03:45:14.412Z,12.70
2018-11-26T03:47:43.030Z,9.83
2018-11-26T03:50:12.676Z,7.87
2018-11-26T03:52:42.338Z,8.97
2018-11-26T03:55:11.868Z,12.77
2018-11-26T03:57:40.436Z,9.00
2018-11-26T04:00:25.812Z,9.40
2018-11-26T04:02:54.342Z,10.90
2018-11-26T04:05:22.871Z,13.90
2018-11-26T04:07:51.535Z,11.73
2018-11-26T04:10:20.037Z,10.10
2018-11-26T04:12:48.568Z,11.90
2018-11-26T04:15:17.112Z,9.70
2018-11-26T04:17:45.716Z,11.23
2018-11-26T04:20:14.207Z,10.67
2018-11-26T04:22:42.739Z,11.10
2018-11-26T04:25:11.316Z,11.50
2018-11-26T04:27:39.864Z,13.27
2018-11-26T04:30:10.253Z,12.30
2018-11-26T04:32:39.333Z,15.83
2018-11-26T04:35:07.906Z,12.67
2018-11-26T04:37:36.455Z,11.43
2018-11-26T04:40:06.016Z,11.13
2018-11-26T04:42:34.550Z,11.07
2018-11-26T04:45:03.179Z,12.07
2018-11-26T04:47:31.728Z,14.57
2018-11-26T04:50:00.224Z,13.67
2018-11-26T04:52:28.755Z,12.03
2018-11-26T04:54:57.853Z,15.83
2018-11-26T04:57:26.366Z,13.73
2018-11-26T04:59:54.884Z,12.40
2018-11-26T05:02:23.482Z,13.00
2018-11-26T05:04:51.979Z,15.03
2018-11-26T05:07:20.530Z,12.23
2018-11-26T05:09:49.033Z,12.63
2018-11-26T05:12:17.586Z,13.27
2018-11-26T05:14:46.109Z,12.37
2018-11-26T05:17:14.647Z,11.53
2018-11-26T05:19:43.145Z,14.00
2018-11-26T05:22:11.684Z,13.80
2018-11-26T05:24:40.179Z,14.20
2018-11-26T05:27:08.730Z,11.27
2018-11-26T05:29:37.263Z,12.60
2018-11-26T05:32:06.591Z,16.10
2018-11-26T05:34:35.098Z,12.87
2018-11-26T05:37:03.610Z,13.30
2018-11-26T05:39:32.143Z,12.80
2018-11-26T05:42:00.669Z,13.00
2018-11-26T05:44:29.210Z,11.40
2018-11-26T05:46:57.906Z,13.90
2018-11-26T05:49:26.431Z,11.50
2018-11-26T05:51:54.926Z,12.17
2018-11-26T05:54:23.566Z,10.67
2018-11-26T05:56:52.073Z,12.40
2018-11-26T05:59:20.610Z,11.87
2018-11-26T06:01:49.121Z,13.00
2018-11-26T06:04:17.653Z,12.17
2018-11-26T06:06:46.276Z,14.90
2018-11-26T06:09:14.817Z,12.83
2018-11-26T06:11:43.310Z,11.20
2018-11-26T06:14:11.841Z,13.10
2018-11-26T06:16:40.380Z,11.57
2018-11-26T06:19:09.535Z,8.03
2018-11-26T06:21:38.077Z,7.60
2018-11-26T06:24:06.824Z,11.03
2018-11-26T06:26:35.316Z,8.80
2018-11-26T06:29:03.898Z,10.10
2018-11-26T06:31:32.418Z,7.33
2018-11-26T06:34:01.700Z,8.10
2018-11-26T06:36:30.229Z,10.77
2018-11-26T06:38:58.858Z,8.20
2018-11-26T06:41:27.382Z,9.93
2018-11-26T06:43:55.943Z,10.67
2018-11-26T06:46:24.512Z,9.40
2018-11-26T06:48:53.058Z,9.80
2018-11-26T06:51:21.612Z,11.77
2018-11-26T06:53:50.766Z,11.87
2018-11-26T06:56:19.401Z,11.40
2018-11-26T06:58:47.919Z,10.20
2018-11-26T07:01:16.477Z,11.80
2018-11-26T07:03:45.073Z,13.30
2018-11-26T07:06:13.768Z,13.60
2018-11-26T07:08:42.303Z,14.80
2018-11-26T07:11:10.851Z,14.53
2018-11-26T07:13:39.381Z,18.40
2018-11-26T07:16:07.916Z,11.07
2018-11-26T07:18:36.687Z,16.53
2018-11-26T07:21:06.090Z,15.23
2018-11-26T07:23:34.604Z,15.30
2018-11-26T07:26:03.485Z,14.17
2018-11-26T07:28:32.026Z,14.03
2018-11-26T07:31:00.591Z,17.83
2018-11-26T07:33:29.170Z,16.33
2018-11-26T07:35:57.769Z,13.90
2018-11-26T07:38:26.306Z,15.50
2018-11-26T07:40:54.945Z,15.33
2018-11-26T07:43:23.560Z,19.63
2018-11-26T07:45:52.171Z,20.60
2018-11-26T07:48:20.698Z,14.87
2018-11-26T07:50:49.331Z,17.67
2018-11-26T07:53:17.989Z,17.90
2018-11-26T07:55:46.651Z,19.13
2018-11-26T07:58:15.170Z,14.80
2018-11-26T08:00:43.817Z,12.63
2018-11-26T08:03:12.351Z,15.00
2018-11-26T08:05:42.800Z,17.17
2018-11-26T08:08:11.525Z,15.40
2018-11-26T08:10:40.105Z,16.17
2018-11-26T08:13:08.643Z,22.07
2018-11-26T08:15:37.192Z,13.30
2018-11-26T08:18:05.909Z,15.50
2018-11-26T08:20:34.482Z,16.13
2018-11-26T08:23:03.038Z,16.67
2018-11-26T08:25:31.656Z,14.20
2018-11-26T08:28:00.230Z,17.17
2018-11-26T08:30:28.799Z,17.93
2018-11-26T08:32:58.539Z,14.43
2018-11-26T08:35:27.194Z,13.57
2018-11-26T08:39:00.915Z,12.40
2018-11-26T08:41:34.698Z,14.03
2018-11-26T08:44:09.548Z,14.50
2018-11-26T08:46:43.237Z,15.17
2018-11-26T08:49:16.975Z,15.20
2018-11-26T08:51:45.507Z,13.93
2018-11-26T08:54:14.107Z,16.37
2018-11-26T08:56:42.698Z,13.73
2018-11-26T08:59:11.249Z,13.93
2018-11-26T09:01:44.452Z,15.03
2018-11-26T09:04:18.396Z,17.43
2018-11-26T09:06:46.942Z,15.30
2018-11-26T09:09:15.451Z,13.97
2018-11-26T09:11:44.048Z,12.87
2018-11-26T09:14:12.831Z,15.70
2018-11-26T09:16:41.456Z,14.40
2018-11-26T09:19:09.974Z,14.77
2018-11-26T09:21:38.505Z,13.17
2018-11-26T09:24:07.088Z,16.83
2018-11-26T09:26:35.678Z,16.00
2018-11-26T09:29:04.294Z,21.23
2018-11-26T09:31:32.890Z,16.27
2018-11-26T09:34:01.421Z,17.33
2018-11-26T09:36:29.990Z,16.30
2018-11-26T09:38:58.496Z,19.47
2018-11-26T09:41:27.032Z,19.63
2018-11-26T09:43:55.680Z,16.90
2018-11-26T09:46:24.239Z,17.70
2018-11-26T09:48:52.891Z,19.33
2018-11-26T09:51:21.513Z,16.53
2018-11-26T09:53:50.055Z,15.70
2018-11-26T09:56:18.617Z,18.27
2018-11-26T09:58:47.137Z,16.07
2018-11-26T10:01:15.723Z,17.50
2018-11-26T10:03:44.292Z,15.70
2018-11-26T10:06:12.904Z,17.47
2018-11-26T10:08:41.411Z,15.97
2018-11-26T10:11:09.954Z,16.00
2018-11-26T10:13:38.461Z,16.13
2018-11-26T10:16:07.622Z,14.70
2018-11-26T10:18:36.167Z,14.63
2018-11-26T10:21:04.737Z,13.73
2018-11-26T10:23:33.281Z,14.13
2018-11-26T10:26:01.801Z,13.33
2018-11-26T10:28:30.356Z,15.33
2018-11-26T10:30:58.935Z,15.00
2018-11-26T10:33:27.453Z,13.93
2018-11-26T10:35:56.014Z,12.80
2018-11-26T10:38:25.044Z,11.27
2018-11-26T10:40:53.550Z,10.70
2018-11-26T10:43:22.118Z,12.37
2018-11-26T10:45:50.654Z,8.73
2018-11-26T10:48:19.197Z,7.73
2018-11-26T10:50:47.708Z,8.23
2018-11-26T10:53:16.292Z,5.60
2018-11-26T10:55:45.639Z,5.37
2018-11-26T10:58:14.167Z,5.63
2018-11-26T11:00:48.846Z,5.00
2018-11-26T11:03:17.408Z,7.30
2018-11-26T11:05:46.633Z,7.53
2018-11-26T11:08:15.171Z,8.03
2018-11-26T11:10:43.705Z,6.10
2018-11-26T11:13:12.262Z,7.20
2018-11-26T11:15:40.805Z,6.30
2018-11-26T11:18:09.498Z,5.53
2018-11-26T11:20:38.014Z,5.00
2018-11-26T11:23:07.916Z,5.27
2018-11-26T11:25:36.627Z,6.37
2018-11-26T11:28:05.900Z,4.80
2018-11-26T11:30:34.665Z,4.00
2018-11-26T11:35:30.843Z,4.70
2018-11-26T11:37:59.399Z,4.03
2018-11-26T11:40:29.517Z,8.53
2018-11-26T11:42:58.947Z,7.33
2018-11-26T11:45:28.315Z,5.13
2018-11-26T11:47:56.925Z,5.20
2018-11-26T11:50:25.549Z,4.00
2018-11-26T11:52:54.102Z,3.63
2018-11-26T11:55:23.631Z,3.30
2018-11-26T11:57:52.850Z,3.57
2018-11-26T12:00:31.389Z,5.40
2018-11-26T12:03:01.902Z,5.43
2018-11-26T12:05:30.407Z,3.27
2018-11-26T12:07:58.943Z,4.20
2018-11-26T12:10:27.557Z,3.20
2018-11-26T12:12:56.110Z,4.80
2018-11-26T12:15:24.645Z,4.27
2018-11-26T12:17:53.304Z,4.30
2018-11-26T12:20:22.865Z,3.90
2018-11-26T12:22:51.461Z,3.00
2018-11-26T12:25:20.956Z,4.10
2018-11-26T12:27:49.516Z,3.97
2018-11-26T12:30:24.411Z,2.93
2018-11-26T12:32:52.969Z,4.10
2018-11-26T12:35:21.702Z,4.73
2018-11-26T12:37:50.434Z,5.80
2018-11-26T12:40:21.026Z,3.80
2018-11-26T12:42:50.848Z,4.70
2018-11-26T12:45:20.846Z,4.27
2018-11-26T12:47:49.507Z,4.80
2018-11-26T12:50:18.098Z,3.57
2018-11-26T12:52:46.683Z,4.37
2018-11-26T12:55:16.661Z,3.10
2018-11-26T12:57:46.230Z,3.70
2018-11-26T13:00:18.759Z,2.73
2018-11-26T13:02:49.469Z,3.67
2018-11-26T13:05:19.047Z,3.77
2018-11-26T13:07:50.184Z,3.87
2018-11-26T13:10:20.636Z,3.30
2018-11-26T13:12:49.997Z,2.60
2018-11-26T13:15:24.847Z,2.90
2018-11-26T13:17:53.481Z,6.23
2018-11-26T13:20:24.453Z,6.63
2018-11-26T13:22:53.522Z,2.90
2018-11-26T13:25:23.376Z,2.70
2018-11-26T13:27:55.174Z,4.33
2018-11-26T13:30:26.975Z,3.00
2018-11-26T13:32:59.598Z,4.70
2018-11-26T13:35:28.154Z,3.50
2018-11-26T13:37:56.884Z,3.17
2018-11-26T13:40:25.444Z,3.30
2018-11-26T13:42:53.974Z,2.70
2018-11-26T13:45:25.857Z,4.80
2018-11-26T13:47:54.649Z,3.40
2018-11-26T13:50:26.392Z,7.33
2018-11-26T13:52:55.211Z,3.67
2018-11-26T13:55:23.822Z,3.20
2018-11-26T13:57:52.954Z,3.60
2018-11-26T14:00:21.550Z,3.97
2018-11-26T14:02:50.326Z,3.30
2018-11-26T14:05:20.457Z,2.80
2018-11-26T14:07:49.177Z,3.73
2018-11-26T14:10:25.761Z,3.03
2018-11-26T14:13:11.022Z,3.67
2018-11-26T14:15:39.722Z,3.87
2018-11-26T14:18:08.232Z,3.17
2018-11-26T14:20:36.769Z,3.23
2018-11-26T14:23:05.895Z,3.70
2018-11-26T14:25:34.446Z,4.87
2018-11-26T14:28:02.986Z,5.20
2018-11-26T14:30:31.675Z,4.40
2018-11-26T14:33:00.281Z,4.90
2018-11-26T14:35:28.826Z,3.47
2018-11-26T14:38:00.109Z,5.20
2018-11-26T14:40:40.095Z,5.43
2018-11-26T14:43:08.625Z,3.60
2018-11-26T14:45:37.466Z,7.10
2018-11-26T14:48:06.257Z,5.87
2018-11-26T14:50:34.960Z,6.30
2018-11-26T14:53:04.427Z,5.03
2018-11-26T14:55:34.882Z,7.17
2018-11-26T14:58:03.553Z,4.63
2018-11-26T15:00:32.264Z,4.40
2018-11-26T15:03:00.783Z,5.10
2018-11-26T15:05:29.344Z,4.70
2018-11-26T15:07:57.911Z,3.90
2018-11-26T15:10:26.934Z,4.80
2018-11-26T15:12:55.449Z,4.73
2018-11-26T15:15:25.505Z,3.70
2018-11-26T15:17:54.094Z,4.87
2018-11-26T15:20:26.521Z,4.10
2018-11-26T15:22:56.181Z,6.17
2018-11-26T15:25:27.588Z,5.03
2018-11-26T15:28:00.648Z,4.50
2018-11-26T15:30:29.212Z,4.97
2018-11-26T15:32:57.755Z,4.47
2018-11-26T15:35:27.119Z,4.03
2018-11-26T15:37:55.689Z,4.77
2018-11-26T15:40:24.419Z,3.80
2018-11-26T15:42:53.019Z,3.60
2018-11-26T15:45:24.711Z,4.83
2018-11-26T15:47:54.073Z,6.57
2018-11-26T15:50:22.707Z,7.83
2018-11-26T15:52:51.261Z,5.10
2018-11-26T15:55:20.821Z,3.97
2018-11-26T15:57:49.996Z,3.90
2018-11-26T16:00:20.691Z,5.33
2018-11-26T16:02:49.462Z,6.37
2018-11-26T16:05:21.858Z,5.77
2018-11-26T16:07:51.023Z,5.17
2018-11-26T16:10:19.633Z,6.20
2018-11-26T16:12:50.030Z,4.30
2018-11-26T16:15:20.998Z,5.17
2018-11-26T16:17:49.941Z,4.90
2018-11-26T16:20:20.212Z,4.00
2018-11-26T16:22:48.984Z,4.67
2018-11-26T16:25:18.890Z,5.70
2018-11-26T16:27:47.417Z,6.83
2018-11-26T16:30:16.925Z,6.70
2018-11-26T16:32:49.044Z,4.10
2018-11-26T16:35:22.069Z,5.20
2018-11-26T16:37:50.595Z,5.40
2018-11-26T16:40:19.139Z,5.47
2018-11-26T16:42:47.670Z,5.50
2018-11-26T16:47:51.288Z,5.30
2018-11-26T16:50:21.062Z,4.80
2018-11-26T16:52:49.586Z,5.83
2018-11-26T16:55:18.667Z,6.13
2018-11-26T16:57:47.228Z,6.60
2018-11-26T17:00:18.846Z,9.77
2018-11-26T17:02:48.708Z,8.87
2018-11-26T17:05:21.052Z,12.17
2018-11-26T17:07:49.611Z,13.00
2018-11-26T17:10:19.023Z,14.90
2018-11-26T17:12:47.575Z,13.00
2018-11-26T17:15:17.435Z,15.87
2018-11-26T17:17:46.920Z,15.93
2018-11-26T17:20:16.665Z,14.33
2018-11-26T17:22:45.513Z,14.50
2018-11-26T17:25:15.576Z,7.30
2018-11-26T17:27:44.969Z,9.40
2018-11-26T17:30:16.752Z,9.70
2018-11-26T17:32:46.360Z,6.63
2018-11-26T17:35:16.096Z,6.43
2018-11-26T17:37:44.637Z,6.03
2018-11-26T17:40:15.805Z,6.63
2018-11-26T17:42:44.356Z,6.87
2018-11-26T17:45:14.094Z,6.87
2018-11-26T17:47:45.081Z,6.50
2018-11-26T17:50:21.348Z,7.10
2018-11-26T17:52:50.117Z,6.47
2018-11-26T17:55:18.850Z,7.07
2018-11-26T17:57:47.454Z,8.37
2018-11-26T18:00:20.614Z,6.87
2018-11-26T18:02:49.180Z,9.97
2018-11-26T18:05:19.302Z,8.23
2018-11-26T18:07:53.929Z,7.60
2018-11-26T18:10:22.529Z,7.80
2018-11-26T18:12:51.697Z,5.93
2018-11-26T18:15:20.395Z,7.13
2018-11-26T18:17:48.928Z,6.37
2018-11-26T18:20:18.997Z,6.50
2018-11-26T18:22:48.891Z,7.07
2018-11-26T18:25:17.833Z,7.90
2018-11-26T18:27:50.447Z,7.30
2018-11-26T18:30:21.948Z,5.90
2018-11-26T18:32:50.487Z,7.20
2018-11-26T18:35:19.072Z,7.90
2018-11-26T18:37:47.595Z,9.37
2018-11-26T18:40:17.187Z,8.73
2018-11-26T18:42:45.946Z,9.50
2018-11-26T18:45:41.383Z,10.23
2018-11-26T18:48:12.644Z,8.63
2018-11-26T18:50:41.219Z,8.80
2018-11-26T18:53:09.773Z,7.50
2018-11-26T18:55:39.738Z,9.70
2018-11-26T18:58:08.341Z,9.37
2018-11-26T19:00:55.439Z,9.40
2018-11-26T19:03:23.970Z,9.23
2018-11-26T19:05:53.910Z,9.37
2018-11-26T19:08:22.473Z,12.07
2018-11-26T19:11:01.461Z,9.73
2018-11-26T19:13:33.984Z,10.97
2018-11-26T19:16:09.558Z,12.90
2018-11-26T19:18:38.168Z,10.10
2018-11-26T19:21:07.380Z,9.67
2018-11-26T19:23:36.211Z,12.40
2018-11-26T19:26:05.126Z,11.90
2018-11-26T19:28:33.680Z,11.33
2018-11-26T19:31:02.290Z,10.67
2018-11-26T19:33:30.829Z,11.90
2018-11-26T19:35:59.398Z,10.70
2018-11-26T19:38:27.937Z,11.83
2018-11-26T19:40:56.500Z,11.80
2018-11-26T19:43:25.067Z,11.10
2018-11-26T19:45:53.910Z,10.10
2018-11-26T19:48:22.440Z,11.53
2018-11-26T19:50:51.057Z,13.37
2018-11-26T19:53:19.667Z,14.37
2018-11-26T19:55:48.229Z,14.07
2018-11-26T19:58:16.781Z,13.07
2018-11-26T20:00:45.433Z,19.87
2018-11-26T20:03:34.477Z,15.40
2018-11-26T20:06:13.441Z,15.83
2018-11-26T20:08:42.584Z,19.23
2018-11-26T20:11:11.894Z,14.60
2018-11-26T20:13:40.471Z,18.97
2018-11-26T20:16:11.094Z,14.77
2018-11-26T20:18:39.611Z,17.23
2018-11-26T20:21:08.197Z,17.30
2018-11-26T20:23:37.401Z,14.27
2018-11-26T20:26:06.417Z,14.70
2018-11-26T20:28:34.971Z,15.83
2018-11-26T20:31:03.748Z,13.80
2018-11-26T20:33:32.313Z,15.37
2018-11-26T20:36:00.938Z,12.37
2018-11-26T20:38:29.984Z,14.30
2018-11-26T20:40:58.531Z,17.23
2018-11-26T20:43:27.144Z,15.23
2018-11-26T20:45:55.763Z,15.90
2018-11-26T20:48:24.329Z,18.97
2018-11-26T20:50:53.344Z,18.17
2018-11-26T20:53:24.504Z,17.73
2018-11-26T20:55:53.301Z,12.43
2018-11-26T20:58:21.936Z,12.47
2018-11-26T21:00:50.709Z,12.07
2018-11-26T21:03:19.293Z,11.63
2018-11-26T21:05:47.832Z,12.77
2018-11-26T21:08:16.392Z,9.50
2018-11-26T21:10:44.927Z,12.03
2018-11-26T21:13:16.869Z,11.13
2018-11-26T21:15:42.095Z,15.67
2018-11-26T21:18:12.933Z,10.50
2018-11-26T21:20:43.174Z,14.70
2018-11-26T21:23:14.556Z,11.90
2018-11-26T21:25:43.146Z,12.33
2018-11-26T21:28:11.912Z,12.90
2018-11-26T21:30:40.452Z,14.10
2018-11-26T21:33:09.046Z,13.47
2018-11-26T21:35:37.603Z,13.90
2018-11-26T21:38:07.695Z,11.87
2018-11-26T21:40:36.469Z,10.53
2018-11-26T21:43:05.376Z,11.80
2018-11-26T21:45:48.071Z,14.83
2018-11-26T21:48:17.203Z,11.87
2018-11-26T21:50:45.753Z,13.97
2018-11-26T21:53:14.353Z,11.87
2018-11-26T21:55:43.223Z,13.47
2018-11-26T21:58:11.792Z,13.07
2018-11-26T22:00:41.092Z,11.33
2018-11-26T22:03:11.905Z,12.20
2018-11-26T22:05:41.777Z,10.80
2018-11-26T22:08:11.244Z,13.40
2018-11-26T22:10:40.952Z,12.17
2018-11-26T22:13:12.016Z,18.77
2018-11-26T22:15:40.601Z,12.10
2018-11-26T22:18:09.417Z,13.40
2018-11-26T22:20:38.015Z,11.67
2018-11-26T22:23:07.764Z,13.30
2018-11-26T22:25:36.861Z,13.73
2018-11-26T22:28:07.201Z,11.80
2018-11-26T22:30:36.631Z,10.77
2018-11-26T22:33:05.415Z,12.37
2018-11-26T22:35:33.980Z,11.90
2018-11-26T22:38:02.548Z,14.40
2018-11-26T22:40:31.088Z,10.50
2018-11-26T22:42:59.682Z,10.87
2018-11-26T22:45:30.393Z,11.70
2018-11-26T22:48:08.500Z,11.50
2018-11-26T22:50:38.257Z,10.73
2018-11-26T22:53:08.311Z,13.83
2018-11-26T22:55:37.004Z,11.70
2018-11-26T22:58:07.246Z,12.57
2018-11-26T23:00:51.489Z,13.43
2018-11-26T23:03:21.483Z,11.87
2018-11-26T23:05:50.012Z,10.50
2018-11-26T23:08:18.572Z,14.80
2018-11-26T23:10:47.131Z,16.20
2018-11-26T23:13:15.777Z,14.20
2018-11-26T23:15:44.393Z,13.47
2018-11-26T23:18:12.996Z,11.23
2018-11-26T23:20:41.516Z,12.37
2018-11-26T23:23:10.065Z,11.00
2018-11-26T23:25:38.628Z,19.50
2018-11-26T23:28:07.197Z,9.80
2018-11-26T23:30:35.805Z,14.23
2018-11-26T23:33:05.393Z,11.40
2018-11-26T23:35:34.132Z,11.53
2018-11-26T23:38:02.672Z,12.40
2018-11-26T23:40:31.228Z,13.63
2018-11-26T23:42:59.787Z,12.00
2018-11-26T23:45:29.036Z,12.57
2018-11-26T23:47:57.648Z,10.60
2018-11-26T23:50:26.211Z,10.83
2018-11-26T23:52:54.759Z,12.50
2018-11-26T23:55:24.116Z,11.67
2018-11-26T23:57:52.701Z,12.53
